Weather History for Gustavus, AK

Change the Weather History Date:

Tuesday, March 12, 2013

  Actual Average Record
Temperature  
Mean Temperature 32 °F -  
Max Temperature 35 °F 42 °F 48 °F (1968)
Min Temperature 28 °F 26 °F -2 °F (1964)
Degree Days  
Heating Degree Days 34    
Moisture  
Dew Point 14 °F    
Average Humidity 50    
Maximum Humidity 93    
Minimum Humidity 31    
Precipitation  
Precipitation 0.00 in - - ()
Sea Level Pressure  
Sea Level Pressure 29.91 in    
Wind  
Wind Speed 10 mph (North)    
Max Wind Speed 18 mph    
Max Gust Speed 28 mph    
Visibility 10 miles    
Events      
Averages and records for this station are not official NWS values.
T = Trace of Precipitation, MM = Missing Value Source: NWS Daily Summary

Daily Weather History Graph

Daily Weather History Graph

Search for Another Location

Airport:

Trip Planner

Search our weather history database for the weather conditions in past years. The results will help you decide how hot, cold, wet, or windy it might be!

Date:

Astronomy

Mar. 12, 2013 Rise Set
Actual Time 7:26 AM AKDT 6:59 PM AKDT
Civil Twilight 6:46 AM AKDT 7:39 PM AKDT
Nautical Twilight 6:00 AM AKDT 8:25 PM AKDT
Astronomical Twilight 5:11 AM AKDT 9:14 PM AKDT
Moon 7:15 AM AKDT (3/12) 8:52 PM AKDT (3/12)
Length of Visible Light 12h 52m
Length of Day
11h 33m
New Moon, 1% of the Moon is Illuminated
Mar 12
New Moon
Mar 19
First Quarter
Mar 27
Full
Apr 2
Last Quarter
Apr 10
New

Hourly Weather History & Observations

Time (AKDT) Temp. Windchill Dew Point Humidity Pressure Visibility Wind Dir Wind Speed Gust Speed Precip Events Conditions
12:16 AM 33.8 °F 27.7 °F 32.0 °F 93% 30.00 in 10.0 mi NNW 6.9 mph - N/A   Overcast
12:36 AM 33.8 °F 27.0 °F 32.0 °F 93% 29.99 in 10.0 mi NNW 8.1 mph - N/A   Overcast
12:56 AM 33.8 °F 28.6 °F 32.0 °F 93% 29.99 in 10.0 mi North 5.8 mph - N/A   Overcast
1:16 AM 33.8 °F 26.4 °F 32.0 °F 93% 29.98 in 10.0 mi NNW 9.2 mph - N/A   Overcast
1:36 AM 33.8 °F 26.4 °F 32.0 °F 93% 29.98 in 10.0 mi North 9.2 mph - N/A   Overcast
1:56 AM 33.8 °F 27.0 °F 32.0 °F 93% 29.98 in 10.0 mi NNW 8.1 mph - N/A   Overcast
2:16 AM 33.8 °F 29.6 °F 30.2 °F 87% 29.97 in 10.0 mi NW 4.6 mph - N/A   Overcast
2:36 AM 33.8 °F 28.6 °F 30.2 °F 87% 29.97 in 10.0 mi North 5.8 mph - N/A   Overcast
2:56 AM 33.8 °F 29.6 °F 30.2 °F 87% 29.97 in 10.0 mi North 4.6 mph - N/A   Overcast
3:16 AM 33.8 °F 26.4 °F 28.4 °F 81% 29.96 in 10.0 mi North 9.2 mph - N/A   Overcast
3:36 AM 33.8 °F 27.7 °F 28.4 °F 81% 29.96 in 10.0 mi NNW 6.9 mph - N/A   Overcast
3:56 AM 33.8 °F 29.6 °F 28.4 °F 81% 29.95 in 10.0 mi NNW 4.6 mph - N/A   Overcast
4:16 AM 35.6 °F 30.7 °F 24.8 °F 65% 29.95 in 10.0 mi North 5.8 mph - N/A   Overcast
4:36 AM 33.8 °F 28.6 °F 24.8 °F 70% 29.94 in 10.0 mi NNW 5.8 mph - N/A   Overcast
4:56 AM 33.8 °F 26.4 °F 24.8 °F 70% 29.94 in 10.0 mi NNW 9.2 mph - N/A   Overcast
5:16 AM 35.6 °F 26.6 °F 23.0 °F 60% 29.94 in 10.0 mi NNW 13.8 mph 19.6 mph N/A   Overcast
5:36 AM 33.8 °F 25.3 °F 24.8 °F 70% 29.93 in 10.0 mi North 11.5 mph - N/A   Overcast
5:56 AM 33.8 °F 24.3 °F 24.8 °F 70% 29.93 in 10.0 mi NNW 13.8 mph 24.2 mph N/A   Overcast
6:16 AM 33.8 °F 26.4 °F 19.4 °F 56% 29.93 in 10.0 mi North 9.2 mph 18.4 mph N/A   Overcast
6:36 AM 35.6 °F 27.5 °F 17.6 °F 48% 29.92 in 10.0 mi North 11.5 mph - N/A   Overcast
6:56 AM 35.6 °F 27.1 °F 17.6 °F 48% 29.92 in 10.0 mi North 12.7 mph 23.0 mph N/A   Overcast
7:16 AM 33.8 °F 23.2 °F 15.8 °F 48% 29.92 in 10.0 mi North 17.3 mph 21.9 mph N/A   Overcast
7:36 AM 33.8 °F 24.3 °F 15.8 °F 48% 29.92 in 10.0 mi North 13.8 mph 17.3 mph N/A   Overcast
7:56 AM 33.8 °F 24.3 °F 15.8 °F 48% 29.91 in 10.0 mi North 13.8 mph 21.9 mph N/A   Mostly Cloudy
8:16 AM 33.8 °F 26.4 °F 15.8 °F 48% 29.92 in 10.0 mi NW 9.2 mph 18.4 mph N/A   Mostly Cloudy
8:36 AM 33.8 °F 24.3 °F 15.8 °F 48% 29.91 in 10.0 mi NNW 13.8 mph 19.6 mph N/A   Mostly Cloudy
8:56 AM 33.8 °F 24.8 °F 15.8 °F 48% 29.91 in 10.0 mi North 12.7 mph 25.3 mph N/A   Overcast
9:16 AM 33.8 °F 24.8 °F 15.8 °F 48% 29.91 in 10.0 mi North 12.7 mph 25.3 mph N/A   Overcast
9:36 AM 33.8 °F 23.5 °F 15.8 °F 48% 29.92 in 10.0 mi North 16.1 mph 24.2 mph N/A   Overcast
9:56 AM 33.8 °F 24.3 °F 17.6 °F 52% 29.92 in 10.0 mi NNW 13.8 mph 23.0 mph N/A   Scattered Clouds
10:36 AM 33.8 °F 23.9 °F 12.2 °F 41% 29.92 in 10.0 mi North 15.0 mph 24.2 mph N/A   Clear
10:56 AM 33.8 °F 24.8 °F 12.2 °F 41% 29.91 in 10.0 mi North 12.7 mph 23.0 mph N/A   Clear
11:16 AM 33.8 °F 23.5 °F 12.2 °F 41% 29.91 in 10.0 mi North 16.1 mph 23.0 mph N/A   Clear
11:36 AM 33.8 °F 23.5 °F 10.4 °F 38% 29.91 in 10.0 mi North 16.1 mph 23.0 mph N/A   Clear
11:56 AM 33.8 °F 24.8 °F 10.4 °F 38% 29.91 in 10.0 mi North 12.7 mph 23.0 mph N/A   Clear
12:16 PM 33.8 °F 25.8 °F 10.4 °F 38% 29.91 in 10.0 mi North 10.4 mph 19.6 mph N/A   Clear
12:36 PM 33.8 °F 24.3 °F 10.4 °F 38% 29.91 in 10.0 mi North 13.8 mph 19.6 mph N/A   Clear
12:56 PM 33.8 °F 24.8 °F 10.4 °F 38% 29.91 in 10.0 mi North 12.7 mph 20.7 mph N/A   Clear
1:16 PM 33.8 °F 24.8 °F 10.4 °F 38% 29.91 in 10.0 mi NNE 12.7 mph 19.6 mph N/A   Clear
1:36 PM 33.8 °F 24.3 °F 10.4 °F 38% 29.90 in 10.0 mi North 13.8 mph 20.7 mph N/A   Clear
1:56 PM 33.8 °F 23.5 °F 10.4 °F 38% 29.89 in 10.0 mi North 16.1 mph 24.2 mph N/A   Clear
2:16 PM 35.6 °F 25.2 °F 10.4 °F 35% 29.89 in 10.0 mi North 18.4 mph 25.3 mph N/A   Clear
2:36 PM 35.6 °F 28.0 °F 10.4 °F 35% 29.88 in 10.0 mi North 10.4 mph 26.5 mph N/A   Clear
2:56 PM 33.8 °F 24.3 °F 8.6 °F 35% 29.88 in 10.0 mi North 13.8 mph 24.2 mph N/A   Clear
3:16 PM 33.8 °F 23.5 °F 8.6 °F 35% 29.88 in 10.0 mi North 16.1 mph 21.9 mph N/A   Clear
3:36 PM 33.8 °F 24.8 °F 8.6 °F 35% 29.87 in 10.0 mi North 12.7 mph 21.9 mph N/A   Clear
3:56 PM 33.8 °F 23.9 °F 8.6 °F 35% 29.86 in 10.0 mi North 15.0 mph 21.9 mph N/A   Clear
4:16 PM 33.8 °F 23.9 °F 8.6 °F 35% 29.87 in 10.0 mi North 15.0 mph 21.9 mph N/A   Clear
4:36 PM 32.0 °F 23.0 °F 8.6 °F 38% 29.86 in 10.0 mi North 11.5 mph - N/A   Clear
4:56 PM 32.0 °F 22.1 °F 8.6 °F 38% 29.86 in 10.0 mi North 13.8 mph 25.3 mph N/A   Clear
5:16 PM 32.0 °F 22.5 °F 6.8 °F 35% 29.86 in 10.0 mi North 12.7 mph 23.0 mph N/A   Clear
5:36 PM 30.2 °F 20.2 °F 6.8 °F 37% 29.86 in 10.0 mi North 12.7 mph - N/A   Clear
5:56 PM 30.2 °F 21.3 °F 6.8 °F 37% 29.86 in 10.0 mi North 10.4 mph 18.4 mph N/A   Clear
6:16 PM 30.2 °F 19.8 °F 6.8 °F 37% 29.86 in 10.0 mi NNW 13.8 mph - N/A   Partly Cloudy
6:36 PM 30.2 °F 21.3 °F 6.8 °F 37% 29.86 in 10.0 mi North 10.4 mph 19.6 mph N/A   Clear
6:56 PM 30.2 °F 19.8 °F 5.0 °F 34% 29.86 in 10.0 mi NNW 13.8 mph - N/A   Partly Cloudy
7:16 PM 30.2 °F 19.8 °F 5.0 °F 34% 29.86 in 10.0 mi NNW 13.8 mph 18.4 mph N/A   Clear
7:36 PM 28.4 °F 18.5 °F 5.0 °F 37% 29.86 in 10.0 mi NNW 11.5 mph 19.6 mph N/A   Partly Cloudy
7:56 PM 28.4 °F 17.5 °F 5.0 °F 37% 29.86 in 10.0 mi NNW 13.8 mph 20.7 mph N/A   Scattered Clouds
8:16 PM 28.4 °F 18.0 °F 3.2 °F 34% 29.86 in 10.0 mi North 12.7 mph 20.7 mph N/A   Clear
8:36 PM 28.4 °F 18.0 °F 3.2 °F 34% 29.86 in 10.0 mi NNW 12.7 mph 18.4 mph N/A   Clear
8:56 PM 28.4 °F 19.7 °F 3.2 °F 34% 29.86 in 10.0 mi NNW 9.2 mph 27.6 mph N/A   Clear
9:56 PM 28.4 °F 17.0 °F 3.2 °F 34% 29.86 in 10.0 mi NNW 15.0 mph 20.7 mph N/A   Mostly Cloudy
10:16 PM 28.4 °F 17.5 °F 3.2 °F 34% 29.87 in 10.0 mi NNW 13.8 mph 23.0 mph N/A   Mostly Cloudy
10:36 PM 28.4 °F 18.0 °F 1.4 °F 31% 29.87 in 10.0 mi NNW 12.7 mph - N/A   Scattered Clouds
10:56 PM 28.4 °F 19.7 °F 3.2 °F 34% 29.87 in 10.0 mi NNW 9.2 mph 17.3 mph N/A   Mostly Cloudy
11:16 PM 28.4 °F 18.5 °F 3.2 °F 34% 29.87 in 10.0 mi NNW 11.5 mph 19.6 mph N/A   Overcast
11:36 PM 28.4 °F 19.7 °F 3.2 °F 34% 29.87 in 10.0 mi North 9.2 mph 26.5 mph N/A   Overcast
11:56 PM 28.4 °F 19.1 °F 3.2 °F 34% 29.87 in 10.0 mi North 10.4 mph 17.3 mph N/A   Mostly Cloudy